Boston, Massachusetts
Traffic Map
Current Weather Conditions
Boston, Massachusetts
Few Clouds
Few Clouds
77°
Feels Like: 79°
Wind Chill: 77° Ceiling: Unl
Heat Index: 79° Visibility: 10mi
Dew Point: 62° Wind: 12mph
Humidity: 60% Direction: 130° (SE)
Pressure: 30.06in Gusts: 0mph
Raw Report DataKBOS 011554Z 13010KT 10SM FEW040 25/17 A3006 RMK AO2 SLP177 T02500167
Traffic Incident Summary
Active as of:
Severity:
Category:
InformationThere was an issue retrieving the traffic information for this location. Please try a different location or try again shortly.
Advertisements
Track Severe Weather on mobile